AirNav   Pilot Hours Calculator
 
 1317 users online  

FL14 John Hopkins All Childrens Hospital Heliport
St. Petersburg, Florida, USA

GOING TO ST. PETERSBURG?


FAA INFORMATION EFFECTIVE 07 NOVEMBER 2019

Location

FAA Identifier: FL14
Lat/Long: 27-45-54.0000N 082-38-26.0000W
27-45.900000N 082-38.433333W
27.7650000,-82.6405556
(estimated)
Elevation: 177 ft. / 54 m (estimated)
From city: 1 mile SW of ST. PETERSBURG, FL
Time zone: UTC -5 (UTC -4 during Daylight Saving Time)
Zip code: 33701

Heliport Operations

Heliport use: Private use. Permission required prior to landing
Activation date: 04/2015
Control tower: no
ARTCC: MIAMI CENTER
FSS: SAINT PETERSBURG FLIGHT SERVICE STATION
Attendance: CONTINUOUS
Wind indicator: lighted
Segmented circle: no

Heliport Communications

WX ASOS at SPG (0.7 nm E): 118.875 (727-821-4334)
WX ASOS at PIE (9 nm N): PHONE 727-531-3456
WX AWOS-3 at TPF (14 nm NE): 118.925 (813-251-6824)
WX ASOS at TPA (14 nm NE): PHONE 813-873-7228
WX AWOS-3P at CLW (14 nm NW): 119.225 (727-449-2184)

Nearby radio navigation aids

VOR radial/distance  VOR name  Freq  Var
PIEr170/8.9ST PETERSBURG VORTAC116.4005W
SRQr354/21.9SARASOTA VOR/DME117.0005W
LALr247/35.8LAKELAND VORTAC116.0001E

 
NDB name  Hdg/Dist  Freq  Var  ID
CAPOK171/14.236005WPI .--. ..

Heliport Services

Runway Information

Helipad H1

Dimensions: 54 x 54 ft. / 16 x 16 m
Surface: ROOF/TOP
Runway edge lights: PERI
Traffic pattern: leftleft

Heliport Ownership and Management from official FAA records

Ownership: Privately-owned
Owner: JOHN HOPKINS ALL CHILDRENS HOSPITAL
501 6TH AVE SOUTH
ST. PETERSBURG, FL 33701
Phone 727-767-4446
Manager: LARRY GREEN
501 6TH AVE SOUTH
ST. PETERSBURG, FL 33701
Phone 727-767-4446
ADDNL CTC: RICHARD GERGER 727-767-8899 RGERGER@JHMI.EDU

Additional Remarks

MEDICAL USE
HELIPAD STRENGTH MARKED AT 25,000 LBS BUT CAN ACCOMODATE UP TO 30,000 LBS
STANDARD HELIPAD MARKINGS - GOOD CONDITION
CHURCH SPIRE 250 FT NORTHEAST
FINAL APCH AND TKOF AREA 97.2 X 97.2 FT
FOR CD CTC TAMPA APCH AT 813-878-2528

Instrument Procedures

There are no published instrument procedures at FL14.

Some nearby airports with instrument procedures:

KSPG - Albert Whitted Airport (1 nm E)
KMCF - MacDill Air Force Base (8 nm NE)
KPIE - St Pete-Clearwater International Airport (9 nm N)
KTPF - Peter O Knight Airport (14 nm NE)
KTPA - Tampa International Airport (14 nm NE)
KCLW - Clearwater Air Park (14 nm NW)
 
Loc | Ops | Rwys | IFR | FBO | Links
Com | Nav | Svcs | Stats | Notes
Aerial photo
No photo
 
Airport distance calculator
Flying to John Hopkins All Childrens Hospital Heliport? Find the distance to fly.

From to FL14

Sunrise and sunset
Times for 13-Nov-2019
 Local
(UTC-5)
 Zulu
(UTC)
Morning civil twilight06:2711:27
Sunrise06:5111:51
Sunset17:3822:38
Evening civil twilight18:0323:03

Current date and time
Zulu (UTC)  13-Nov-2019 21:15:10
Local (UTC-5)  13-Nov-2019 16:15:10
 
METAR
KSPG 132053Z 06019KT 10SM OVC032 21/15 A3006 RMK AO2 SLP178 T02060150 55007
KMCF 
8nm NE 
132056Z AUTO 08018KT 10SM OVC029 20/13 A3006 RMK AO2 CIG 028 RWY22 SLP182 T01970129 55007 FZRANO $
KPIE 
9nm N 
132053Z 06012G18KT 10SM OVC031 21/13 A3007 RMK AO2 SLP182 T02060128 55007
KTPA 
13nm NE 
132053Z 04010G19KT 10SM OVC029 19/13 A3008 RMK AO2 SLP186 T01940128 55006 $
KTPF 
14nm NE 
132055Z AUTO 05014KT 10SM OVC029 20/15 A3008 RMK AO2
KCLW 
14nm NW 
132055Z AUTO 07010G15KT 10SM OVC032 19/12 A3007 RMK AO2
TAF
KMCF 
8nm NE 
131700Z 1317/1423 05020KT 9999 BKN019 QNH3004INS BECMG 1414/1415 09015G20KT 9000 VCSH SCT019 QNH3009INS BECMG 1417/1418 10015KT 9000 -SHRA FEW026 QNH3003INS BECMG 1420/1421 10012KT 9000 -SHRA FEW026 QNH2997INS TX25/1417Z TN18/1317Z
KPIE 
9nm N 
132023Z 1320/1418 04011G18KT P6SM BKN025 FM140000 05011G18KT P6SM SCT030 OVC060 FM140600 05009KT P6SM BKN050 BKN100 FM141500 08008KT P6SM BKN050 OVC100
KTPA 
13nm NE 
132015Z 1320/1424 04011G18KT P6SM BKN025 OVC060 FM140100 05011KT P6SM SCT030 OVC060 FM140600 05007KT P6SM BKN050 FM141500 08008KT P6SM BKN050 OVC100
NOTAMs
Click for the latest NOTAMs
NOTAMs are issued by the DoD/FAA and will open in a separate window not controlled by AirNav.

 

 
 

Would you like to see your business listed on this page?

 If your business provides an interesting product or service to pilots, flight crews, aircraft, or users of the John Hopkins All Childrens Hospital Heliport, you should consider listing it here.  To start the listing process, click on the button below
 
Add a business
 

Other Pages about John Hopkins All Childrens Hospital Heliport

Update a link
 
Copyright © AirNav, LLC. All rights reserved. Privacy Policy  Contact